sensor_id;sensor_type;location;lat;lon;timestamp;pressure;altitude;pressure_sealevel;temperature;humidity
66479;BME280;53294;47.912;13.526;2023-08-24T00:01:46;96448.72;;;21.02;94.32
66479;BME280;53294;47.912;13.526;2023-08-24T00:04:12;96446.75;;;21.03;94.86
66479;BME280;53294;47.912;13.526;2023-08-24T00:06:39;96441.38;;;21.06;95.46
66479;BME280;53294;47.912;13.526;2023-08-24T00:09:06;96447.25;;;21.08;95.24
66479;BME280;53294;47.912;13.526;2023-08-24T00:11:33;96442.25;;;21.10;95.74
66479;BME280;53294;47.912;13.526;2023-08-24T00:13:59;96441.44;;;21.10;96.09
66479;BME280;53294;47.912;13.526;2023-08-24T00:16:26;96435.41;;;21.01;94.65
66479;BME280;53294;47.912;13.526;2023-08-24T00:18:53;96443.59;;;21.01;94.64
66479;BME280;53294;47.912;13.526;2023-08-24T00:21:19;96437.25;;;20.96;95.29
66479;BME280;53294;47.912;13.526;2023-08-24T00:23:50;96437.19;;;20.93;96.35
66479;BME280;53294;47.912;13.526;2023-08-24T00:26:17;96429.44;;;20.95;96.29
66479;BME280;53294;47.912;13.526;2023-08-24T00:28:44;96429.34;;;20.91;95.54
66479;BME280;53294;47.912;13.526;2023-08-24T00:31:12;96430.84;;;20.89;97.39
66479;BME280;53294;47.912;13.526;2023-08-24T00:33:39;96429.19;;;20.84;95.71
66479;BME280;53294;47.912;13.526;2023-08-24T00:36:06;96429.13;;;20.80;94.95
66479;BME280;53294;47.912;13.526;2023-08-24T00:38:33;96421.72;;;20.81;95.32
66479;BME280;53294;47.912;13.526;2023-08-24T00:41:00;96429.72;;;20.74;94.82
66479;BME280;53294;47.912;13.526;2023-08-24T00:43:27;96431.06;;;20.64;94.13
66479;BME280;53294;47.912;13.526;2023-08-24T00:46:00;96426.84;;;20.67;96.19
66479;BME280;53294;47.912;13.526;2023-08-24T00:48:28;96427.28;;;20.69;96.21
66479;BME280;53294;47.912;13.526;2023-08-24T00:50:59;96421.81;;;20.69;96.73
66479;BME280;53294;47.912;13.526;2023-08-24T00:53:27;96420.22;;;20.68;95.65
66479;BME280;53294;47.912;13.526;2023-08-24T00:55:54;96417.25;;;20.73;96.01
66479;BME280;53294;47.912;13.526;2023-08-24T00:58:21;96408.25;;;20.88;95.20
66479;BME280;53294;47.912;13.526;2023-08-24T01:00:51;96406.66;;;20.87;93.71
66479;BME280;53294;47.912;13.526;2023-08-24T01:03:19;96408.94;;;20.85;92.36
66479;BME280;53294;47.912;13.526;2023-08-24T01:05:45;96403.03;;;20.83;92.51
66479;BME280;53294;47.912;13.526;2023-08-24T01:08:13;96398.75;;;20.82;92.47
66479;BME280;53294;47.912;13.526;2023-08-24T01:13:27;96406.69;;;20.71;93.98
66479;BME280;53294;47.912;13.526;2023-08-24T01:16:07;96407.03;;;20.70;93.75
66479;BME280;53294;47.912;13.526;2023-08-24T01:18:35;96410.03;;;20.65;93.16
66479;BME280;53294;47.912;13.526;2023-08-24T01:21:03;96407.47;;;20.56;93.54
66479;BME280;53294;47.912;13.526;2023-08-24T01:23:38;96408.19;;;20.53;92.80
66479;BME280;53294;47.912;13.526;2023-08-24T01:26:11;96399.91;;;20.49;93.69
66479;BME280;53294;47.912;13.526;2023-08-24T01:28:38;96410.91;;;20.53;92.86
66479;BME280;53294;47.912;13.526;2023-08-24T01:31:05;96415.13;;;20.50;93.20
66479;BME280;53294;47.912;13.526;2023-08-24T01:33:32;96415.50;;;20.33;95.31
66479;BME280;53294;47.912;13.526;2023-08-24T01:35:58;96425.09;;;20.26;96.11
66479;BME280;53294;47.912;13.526;2023-08-24T01:38:26;96416.56;;;20.12;96.14
66479;BME280;53294;47.912;13.526;2023-08-24T01:41:09;96416.56;;;20.12;97.10
66479;BME280;53294;47.912;13.526;2023-08-24T01:43:39;96412.69;;;20.13;96.90
66479;BME280;53294;47.912;13.526;2023-08-24T01:46:13;96417.53;;;20.04;96.69
66479;BME280;53294;47.912;13.526;2023-08-24T01:48:42;96408.91;;;20.02;97.24
66479;BME280;53294;47.912;13.526;2023-08-24T01:51:09;96417.09;;;20.02;97.16
66479;BME280;53294;47.912;13.526;2023-08-24T01:53:38;96402.84;;;19.93;95.51
66479;BME280;53294;47.912;13.526;2023-08-24T01:56:15;96404.50;;;19.97;94.81
66479;BME280;53294;47.912;13.526;2023-08-24T01:58:42;96402.22;;;19.99;96.05
66479;BME280;53294;47.912;13.526;2023-08-24T02:01:09;96398.00;;;20.02;96.87
66479;BME280;53294;47.912;13.526;2023-08-24T02:03:37;96398.44;;;20.04;96.94
66479;BME280;53294;47.912;13.526;2023-08-24T02:06:06;96396.97;;;20.06;96.84
66479;BME280;53294;47.912;13.526;2023-08-24T02:08:33;96387.53;;;20.04;97.00
66479;BME280;53294;47.912;13.526;2023-08-24T02:11:00;96388.00;;;20.06;96.66
66479;BME280;53294;47.912;13.526;2023-08-24T02:13:27;96391.84;;;20.05;96.57
66479;BME280;53294;47.912;13.526;2023-08-24T02:16:04;96387.38;;;19.97;95.88
66479;BME280;53294;47.912;13.526;2023-08-24T02:18:32;96388.06;;;19.94;96.46
66479;BME280;53294;47.912;13.526;2023-08-24T02:20:59;96390.44;;;19.95;96.33
66479;BME280;53294;47.912;13.526;2023-08-24T02:23:26;96388.06;;;19.94;95.80
66479;BME280;53294;47.912;13.526;2023-08-24T02:25:52;96386.13;;;19.94;96.25
66479;BME280;53294;47.912;13.526;2023-08-24T02:28:19;96384.38;;;20.02;97.08
66479;BME280;53294;47.912;13.526;2023-08-24T02:30:45;96386.41;;;20.05;96.91
66479;BME280;53294;47.912;13.526;2023-08-24T02:33:12;96387.53;;;20.04;96.15
66479;BME280;53294;47.912;13.526;2023-08-24T02:35:39;96386.41;;;20.05;95.70
66479;BME280;53294;47.912;13.526;2023-08-24T02:38:05;96380.78;;;20.14;95.84
66479;BME280;53294;47.912;13.526;2023-08-24T02:40:32;96386.38;;;20.21;95.49
66479;BME280;53294;47.912;13.526;2023-08-24T02:42:59;96387.34;;;20.29;95.20
66479;BME280;53294;47.912;13.526;2023-08-24T02:45:25;96382.72;;;20.29;94.50
66479;BME280;53294;47.912;13.526;2023-08-24T02:47:52;96377.34;;;20.33;94.40
66479;BME280;53294;47.912;13.526;2023-08-24T02:50:19;96380.47;;;20.35;94.08
66479;BME280;53294;47.912;13.526;2023-08-24T02:52:46;96380.06;;;20.33;93.88
66479;BME280;53294;47.912;13.526;2023-08-24T02:55:13;96373.38;;;20.30;92.98
66479;BME280;53294;47.912;13.526;2023-08-24T02:57:39;96378.31;;;20.24;93.01
66479;BME280;53294;47.912;13.526;2023-08-24T03:00:07;96382.19;;;20.23;92.86
66479;BME280;53294;47.912;13.526;2023-08-24T03:02:33;96381.19;;;20.32;92.42
66479;BME280;53294;47.912;13.526;2023-08-24T03:05:00;96380.69;;;20.26;92.58
66479;BME280;53294;47.912;13.526;2023-08-24T03:07:27;96381.81;;;20.25;93.01
66479;BME280;53294;47.912;13.526;2023-08-24T03:09:54;96385.59;;;20.20;92.99
66479;BME280;53294;47.912;13.526;2023-08-24T03:12:20;96390.28;;;20.20;93.51
66479;BME280;53294;47.912;13.526;2023-08-24T03:14:51;96382.44;;;20.18;93.38
66479;BME280;53294;47.912;13.526;2023-08-24T03:17:18;96382.97;;;20.08;94.00
66479;BME280;53294;47.912;13.526;2023-08-24T03:19:44;96383.75;;;20.08;93.86
66479;BME280;53294;47.912;13.526;2023-08-24T03:22:11;96387.66;;;20.07;93.81
66479;BME280;53294;47.912;13.526;2023-08-24T03:24:38;96378.94;;;20.02;94.32
66479;BME280;53294;47.912;13.526;2023-08-24T03:27:05;96380.75;;;19.98;95.01
66479;BME280;53294;47.912;13.526;2023-08-24T03:29:31;96381.47;;;19.95;94.66
66479;BME280;53294;47.912;13.526;2023-08-24T03:31:58;96389.63;;;19.95;94.88
66479;BME280;53294;47.912;13.526;2023-08-24T03:34:24;96384.19;;;19.79;96.55
66479;BME280;53294;47.912;13.526;2023-08-24T03:36:51;96381.34;;;19.75;97.19
66479;BME280;53294;47.912;13.526;2023-08-24T03:39:18;96390.66;;;19.74;96.60
66479;BME280;53294;47.912;13.526;2023-08-24T03:41:45;96384.56;;;19.65;95.42
66479;BME280;53294;47.912;13.526;2023-08-24T03:44:11;96386.59;;;19.68;96.91
66479;BME280;53294;47.912;13.526;2023-08-24T03:46:38;96386.88;;;19.63;96.90
66479;BME280;53294;47.912;13.526;2023-08-24T03:49:04;96387.09;;;19.58;97.79
66479;BME280;53294;47.912;13.526;2023-08-24T03:51:31;96383.94;;;19.55;97.52
66479;BME280;53294;47.912;13.526;2023-08-24T03:53:58;96384.63;;;19.52;97.38
66479;BME280;53294;47.912;13.526;2023-08-24T03:56:24;96387.72;;;19.51;97.67
66479;BME280;53294;47.912;13.526;2023-08-24T03:58:51;96382.88;;;19.44;97.01
66479;BME280;53294;47.912;13.526;2023-08-24T04:01:17;96384.47;;;19.45;98.21
66479;BME280;53294;47.912;13.526;2023-08-24T04:03:44;96390.69;;;19.46;97.80
66479;BME280;53294;47.912;13.526;2023-08-24T04:06:11;96386.72;;;19.43;98.05
66479;BME280;53294;47.912;13.526;2023-08-24T04:08:37;96391.38;;;19.43;98.55
66479;BME280;53294;47.912;13.526;2023-08-24T04:11:04;96384.41;;;19.29;100.00
66479;BME280;53294;47.912;13.526;2023-08-24T04:13:30;96382.66;;;19.37;99.71
66479;BME280;53294;47.912;13.526;2023-08-24T04:15:57;96385.84;;;19.39;99.08
66479;BME280;53294;47.912;13.526;2023-08-24T04:18:24;96385.84;;;19.39;98.73
66479;BME280;53294;47.912;13.526;2023-08-24T04:20:52;96384.25;;;19.38;98.80
66479;BME280;53294;47.912;13.526;2023-08-24T04:23:26;96388.13;;;19.37;98.49
66479;BME280;53294;47.912;13.526;2023-08-24T04:25:53;96384.25;;;19.38;97.55
66479;BME280;53294;47.912;13.526;2023-08-24T04:28:20;96390.06;;;19.36;98.92
66479;BME280;53294;47.912;13.526;2023-08-24T04:30:54;96386.03;;;19.46;98.80
66479;BME280;53294;47.912;13.526;2023-08-24T04:33:22;96386.56;;;19.36;98.08
66479;BME280;53294;47.912;13.526;2023-08-24T04:35:49;96381.41;;;19.47;100.00
66479;BME280;53294;47.912;13.526;2023-08-24T04:38:16;96388.19;;;19.69;100.00
66479;BME280;53294;47.912;13.526;2023-08-24T04:40:49;96396.81;;;19.71;95.82
66479;BME280;53294;47.912;13.526;2023-08-24T04:43:18;96396.09;;;19.74;95.26
66479;BME280;53294;47.912;13.526;2023-08-24T04:45:54;96384.06;;;19.75;96.49
66479;BME280;53294;47.912;13.526;2023-08-24T04:48:22;96389.03;;;19.85;98.77
66479;BME280;53294;47.912;13.526;2023-08-24T04:50:50;96387.69;;;19.79;95.56
66479;BME280;53294;47.912;13.526;2023-08-24T04:53:17;96386.28;;;19.85;96.45
66479;BME280;53294;47.912;13.526;2023-08-24T04:55:45;96383.31;;;19.90;97.15
66479;BME280;53294;47.912;13.526;2023-08-24T04:58:12;96377.88;;;19.90;96.99
66479;BME280;53294;47.912;13.526;2023-08-24T05:00:39;96390.53;;;19.99;97.65
66479;BME280;53294;47.912;13.526;2023-08-24T05:03:06;96382.00;;;20.16;98.68
66479;BME280;53294;47.912;13.526;2023-08-24T05:05:35;96379.44;;;20.23;96.72
66479;BME280;53294;47.912;13.526;2023-08-24T05:08:03;96380.41;;;20.31;95.88
66479;BME280;53294;47.912;13.526;2023-08-24T05:10:33;96383.53;;;20.49;97.10
66479;BME280;53294;47.912;13.526;2023-08-24T05:13:00;96381.50;;;20.62;97.46
66479;BME280;53294;47.912;13.526;2023-08-24T05:15:27;96384.94;;;20.75;95.84
66479;BME280;53294;47.912;13.526;2023-08-24T05:17:54;96380.84;;;20.85;94.71
66479;BME280;53294;47.912;13.526;2023-08-24T05:20:26;96378.69;;;20.94;93.82
66479;BME280;53294;47.912;13.526;2023-08-24T05:22:53;96390.19;;;21.03;92.55
66479;BME280;53294;47.912;13.526;2023-08-24T05:25:23;96387.84;;;21.21;91.77
66479;BME280;53294;47.912;13.526;2023-08-24T05:27:50;96392.44;;;21.37;91.22
66479;BME280;53294;47.912;13.526;2023-08-24T05:30:17;96385.69;;;21.50;91.47
66479;BME280;53294;47.912;13.526;2023-08-24T05:32:44;96383.88;;;21.58;91.05
66479;BME280;53294;47.912;13.526;2023-08-24T05:35:10;96385.53;;;21.62;90.53
66479;BME280;53294;47.912;13.526;2023-08-24T05:37:37;96376.81;;;21.76;90.09
66479;BME280;53294;47.912;13.526;2023-08-24T05:40:04;96372.84;;;21.97;88.42
66479;BME280;53294;47.912;13.526;2023-08-24T05:42:31;96378.63;;;22.15;86.85
66479;BME280;53294;47.912;13.526;2023-08-24T05:44:58;96377.28;;;22.28;85.47
66479;BME280;53294;47.912;13.526;2023-08-24T05:47:25;96375.84;;;22.34;84.90
66479;BME280;53294;47.912;13.526;2023-08-24T05:49:51;96376.81;;;22.46;85.04
66479;BME280;53294;47.912;13.526;2023-08-24T05:52:18;96384.06;;;22.61;84.07
66479;BME280;53294;47.912;13.526;2023-08-24T05:54:45;96372.16;;;22.76;83.63
66479;BME280;53294;47.912;13.526;2023-08-24T05:57:11;96376.91;;;23.10;81.95
66479;BME280;53294;47.912;13.526;2023-08-24T05:59:38;96378.88;;;23.43;80.81
66479;BME280;53294;47.912;13.526;2023-08-24T06:02:05;96377.88;;;23.59;79.08
66479;BME280;53294;47.912;13.526;2023-08-24T06:04:31;96376.91;;;23.81;79.14
66479;BME280;53294;47.912;13.526;2023-08-24T06:06:58;96379.47;;;24.01;77.03
66479;BME280;53294;47.912;13.526;2023-08-24T06:09:25;96377.81;;;24.37;75.92
66479;BME280;53294;47.912;13.526;2023-08-24T06:11:52;96369.88;;;24.77;72.96
66479;BME280;53294;47.912;13.526;2023-08-24T06:14:19;96371.88;;;26.01;67.85
66479;BME280;53294;47.912;13.526;2023-08-24T06:16:45;96366.91;;;27.49;61.90
66479;BME280;53294;47.912;13.526;2023-08-24T06:19:12;96364.66;;;28.48;58.41
66479;BME280;53294;47.912;13.526;2023-08-24T06:21:39;96368.59;;;29.27;56.01
66479;BME280;53294;47.912;13.526;2023-08-24T06:24:05;96361.50;;;29.84;53.83
66479;BME280;53294;47.912;13.526;2023-08-24T06:26:32;96362.88;;;30.51;51.49
66479;BME280;53294;47.912;13.526;2023-08-24T06:28:59;96349.03;;;30.71;50.99
66479;BME280;53294;47.912;13.526;2023-08-24T06:31:25;96352.09;;;30.96;50.72
66479;BME280;53294;47.912;13.526;2023-08-24T06:33:52;96341.25;;;32.48;46.58
66479;BME280;53294;47.912;13.526;2023-08-24T06:36:19;96342.31;;;33.42;44.00
66479;BME280;53294;47.912;13.526;2023-08-24T06:38:46;96329.97;;;33.95;43.02
66479;BME280;53294;47.912;13.526;2023-08-24T06:41:12;96336.00;;;34.06;41.88
66479;BME280;53294;47.912;13.526;2023-08-24T06:43:39;96329.50;;;34.70;40.50
66479;BME280;53294;47.912;13.526;2023-08-24T06:46:06;96324.75;;;34.58;40.39
66479;BME280;53294;47.912;13.526;2023-08-24T06:48:36;96325.06;;;33.99;41.63
66479;BME280;53294;47.912;13.526;2023-08-24T06:51:08;96328.63;;;33.87;41.77
66479;BME280;53294;47.912;13.526;2023-08-24T06:53:35;96321.25;;;34.06;41.48
66479;BME280;53294;47.912;13.526;2023-08-24T06:56:01;96317.69;;;34.31;41.22
66479;BME280;53294;47.912;13.526;2023-08-24T06:58:28;96324.25;;;34.72;40.07
66479;BME280;53294;47.912;13.526;2023-08-24T07:00:55;96324.53;;;35.63;38.37
66479;BME280;53294;47.912;13.526;2023-08-24T07:03:23;96321.81;;;35.40;38.71
66479;BME280;53294;47.912;13.526;2023-08-24T07:05:50;96317.78;;;35.19;39.24
66479;BME280;53294;47.912;13.526;2023-08-24T07:08:17;96318.81;;;35.13;39.79
66479;BME280;53294;47.912;13.526;2023-08-24T07:10:44;96327.16;;;34.21;41.05
66479;BME280;53294;47.912;13.526;2023-08-24T07:13:11;96320.75;;;34.59;40.93
66479;BME280;53294;47.912;13.526;2023-08-24T07:15:37;96313.69;;;34.06;41.91
66479;BME280;53294;47.912;13.526;2023-08-24T07:18:04;96317.28;;;33.94;42.00
66479;BME280;53294;47.912;13.526;2023-08-24T07:20:32;96314.81;;;33.44;43.53
66479;BME280;53294;47.912;13.526;2023-08-24T07:22:59;96313.91;;;33.48;42.75
66479;BME280;53294;47.912;13.526;2023-08-24T07:25:26;96314.59;;;33.52;43.15
66479;BME280;53294;47.912;13.526;2023-08-24T07:27:54;96313.19;;;33.86;42.59
66479;BME280;53294;47.912;13.526;2023-08-24T07:30:26;96317.50;;;33.87;42.02
66479;BME280;53294;47.912;13.526;2023-08-24T07:33:00;96312.25;;;33.50;42.75
66479;BME280;53294;47.912;13.526;2023-08-24T07:35:27;96322.97;;;33.09;43.56
66479;BME280;53294;47.912;13.526;2023-08-24T07:37:54;96319.44;;;33.22;43.47
66479;BME280;53294;47.912;13.526;2023-08-24T07:40:21;96311.34;;;33.66;43.30
66479;BME280;53294;47.912;13.526;2023-08-24T07:42:51;96305.66;;;34.08;41.77
66479;BME280;53294;47.912;13.526;2023-08-24T07:45:23;96305.81;;;34.52;41.35
66479;BME280;53294;47.912;13.526;2023-08-24T07:47:50;96304.00;;;33.04;45.44
66479;BME280;53294;47.912;13.526;2023-08-24T07:50:17;96310.28;;;31.84;47.98
66479;BME280;53294;47.912;13.526;2023-08-24T07:52:44;96312.22;;;30.90;48.42
66479;BME280;53294;47.912;13.526;2023-08-24T07:55:11;96314.75;;;30.41;50.87
66479;BME280;53294;47.912;13.526;2023-08-24T07:57:38;96320.31;;;29.90;53.30
66479;BME280;53294;47.912;13.526;2023-08-24T08:00:05;96323.53;;;29.58;53.94
66479;BME280;53294;47.912;13.526;2023-08-24T08:02:35;96323.13;;;29.28;54.40
66479;BME280;53294;47.912;13.526;2023-08-24T08:05:04;96321.44;;;29.04;55.44
66479;BME280;53294;47.912;13.526;2023-08-24T08:07:34;96325.25;;;28.82;54.68
66479;BME280;53294;47.912;13.526;2023-08-24T08:10:01;96322.81;;;28.88;56.89
66479;BME280;53294;47.912;13.526;2023-08-24T08:12:27;96325.09;;;28.97;57.66
66479;BME280;53294;47.912;13.526;2023-08-24T08:14:55;96323.09;;;28.97;57.22
66479;BME280;53294;47.912;13.526;2023-08-24T08:17:23;96319.00;;;29.09;57.32
66479;BME280;53294;47.912;13.526;2023-08-24T08:19:54;96323.31;;;29.14;57.41
66479;BME280;53294;47.912;13.526;2023-08-24T08:22:21;96322.59;;;29.06;58.07
66479;BME280;53294;47.912;13.526;2023-08-24T08:24:48;96321.03;;;29.05;57.63
66479;BME280;53294;47.912;13.526;2023-08-24T08:27:16;96319.28;;;29.18;56.89
66479;BME280;53294;47.912;13.526;2023-08-24T08:29:43;96321.06;;;29.36;56.89
66479;BME280;53294;47.912;13.526;2023-08-24T08:32:09;96310.28;;;29.45;56.71
66479;BME280;53294;47.912;13.526;2023-08-24T08:34:38;96319.56;;;29.59;55.32
66479;BME280;53294;47.912;13.526;2023-08-24T08:37:04;96315.06;;;29.68;54.80
66479;BME280;53294;47.912;13.526;2023-08-24T08:39:32;96321.22;;;29.83;54.73
66479;BME280;53294;47.912;13.526;2023-08-24T08:41:59;96311.69;;;29.84;54.54
66479;BME280;53294;47.912;13.526;2023-08-24T08:44:30;96311.34;;;30.06;53.54
66479;BME280;53294;47.912;13.526;2023-08-24T08:46:59;96303.28;;;30.15;52.76
66479;BME280;53294;47.912;13.526;2023-08-24T08:49:29;96311.94;;;30.17;53.44
66479;BME280;53294;47.912;13.526;2023-08-24T08:51:56;96304.97;;;30.33;52.86
66479;BME280;53294;47.912;13.526;2023-08-24T08:54:23;96306.19;;;30.55;52.77
66479;BME280;53294;47.912;13.526;2023-08-24T08:56:50;96308.63;;;30.73;52.12
66479;BME280;53294;47.912;13.526;2023-08-24T08:59:17;96306.06;;;30.83;51.85
66479;BME280;53294;47.912;13.526;2023-08-24T09:01:45;96302.28;;;30.93;51.94
66479;BME280;53294;47.912;13.526;2023-08-24T09:04:14;96294.13;;;32.28;50.48
66479;BME280;53294;47.912;13.526;2023-08-24T09:06:41;96266.53;;;37.70;37.14
66479;BME280;53294;47.912;13.526;2023-08-24T09:09:08;96263.78;;;36.72;39.39
66479;BME280;53294;47.912;13.526;2023-08-24T09:11:36;96270.81;;;35.18;47.63
66479;BME280;53294;47.912;13.526;2023-08-24T09:14:03;96278.47;;;35.27;41.89
66479;BME280;53294;47.912;13.526;2023-08-24T09:16:29;96271.88;;;34.89;41.58
66479;BME280;53294;47.912;13.526;2023-08-24T09:18:56;96278.75;;;34.75;42.32
66479;BME280;53294;47.912;13.526;2023-08-24T09:21:24;96267.56;;;35.19;41.40
66479;BME280;53294;47.912;13.526;2023-08-24T09:23:55;96275.56;;;35.71;40.03
66479;BME280;53294;47.912;13.526;2023-08-24T09:30:52;96270.63;;;33.72;48.35
66479;BME280;53294;47.912;13.526;2023-08-24T09:34:46;96252.94;;;35.37;42.77
66479;BME280;53294;47.912;13.526;2023-08-24T09:37:16;96249.75;;;34.95;41.72
66479;BME280;53294;47.912;13.526;2023-08-24T09:39:44;96255.59;;;34.30;42.87
66479;BME280;53294;47.912;13.526;2023-08-24T09:42:10;96251.66;;;33.93;43.26
66479;BME280;53294;47.912;13.526;2023-08-24T09:44:37;96254.69;;;33.86;44.10
66479;BME280;53294;47.912;13.526;2023-08-24T09:47:11;96248.88;;;33.93;43.14
66479;BME280;53294;47.912;13.526;2023-08-24T09:49:38;96245.31;;;33.92;43.47
66479;BME280;53294;47.912;13.526;2023-08-24T09:52:06;96240.78;;;34.21;43.13
66479;BME280;53294;47.912;13.526;2023-08-24T09:54:37;96234.50;;;34.42;43.01
66479;BME280;53294;47.912;13.526;2023-08-24T09:57:06;96230.47;;;34.43;43.26
66479;BME280;53294;47.912;13.526;2023-08-24T09:59:38;96222.28;;;34.71;42.99
66479;BME280;53294;47.912;13.526;2023-08-24T10:02:14;96221.63;;;35.11;41.00
66479;BME280;53294;47.912;13.526;2023-08-24T10:04:42;96220.28;;;35.25;41.07
66479;BME280;53294;47.912;13.526;2023-08-24T10:07:11;96218.03;;;35.33;40.89
66479;BME280;53294;47.912;13.526;2023-08-24T10:09:50;96205.97;;;35.45;39.60
66479;BME280;53294;47.912;13.526;2023-08-24T10:12:23;96203.50;;;35.47;40.35
66479;BME280;53294;47.912;13.526;2023-08-24T10:14:59;96206.06;;;35.73;39.92
66479;BME280;53294;47.912;13.526;2023-08-24T10:17:27;96194.31;;;35.97;38.65
66479;BME280;53294;47.912;13.526;2023-08-24T10:19:55;96194.28;;;35.78;40.34
66479;BME280;53294;47.912;13.526;2023-08-24T10:22:24;96196.81;;;36.04;38.82
66479;BME280;53294;47.912;13.526;2023-08-24T10:24:51;96194.50;;;36.11;38.47
66479;BME280;53294;47.912;13.526;2023-08-24T10:27:20;96203.94;;;36.14;39.15
66479;BME280;53294;47.912;13.526;2023-08-24T10:29:47;96193.56;;;36.15;39.16
66479;BME280;53294;47.912;13.526;2023-08-24T10:32:14;96197.13;;;36.24;39.81
66479;BME280;53294;47.912;13.526;2023-08-24T10:34:41;96205.72;;;36.30;38.90
66479;BME280;53294;47.912;13.526;2023-08-24T10:37:09;96204.44;;;36.40;38.57
66479;BME280;53294;47.912;13.526;2023-08-24T10:39:45;96196.38;;;36.52;39.71
66479;BME280;53294;47.912;13.526;2023-08-24T10:42:13;96196.81;;;36.69;39.67
66479;BME280;53294;47.912;13.526;2023-08-24T10:44:44;96188.09;;;36.85;37.82
66479;BME280;53294;47.912;13.526;2023-08-24T10:50:07;96192.97;;;36.29;38.70
66479;BME280;53294;47.912;13.526;2023-08-24T10:52:36;96189.81;;;35.90;39.71
66479;BME280;53294;47.912;13.526;2023-08-24T10:55:05;96189.16;;;35.76;39.29
66479;BME280;53294;47.912;13.526;2023-08-24T10:57:55;96188.41;;;35.76;40.27
66479;BME280;53294;47.912;13.526;2023-08-24T11:00:26;96192.00;;;35.95;38.27
66479;BME280;53294;47.912;13.526;2023-08-24T11:02:54;96199.44;;;36.07;38.30
66479;BME280;53294;47.912;13.526;2023-08-24T11:05:29;96179.13;;;36.16;38.74
66479;BME280;53294;47.912;13.526;2023-08-24T11:08:05;96176.97;;;36.29;37.87
66479;BME280;53294;47.912;13.526;2023-08-24T11:13:15;96170.09;;;36.58;37.45
66479;BME280;53294;47.912;13.526;2023-08-24T11:15:45;96164.97;;;36.75;37.26
66479;BME280;53294;47.912;13.526;2023-08-24T11:20:45;96155.47;;;36.82;37.02
66479;BME280;53294;47.912;13.526;2023-08-24T11:23:14;96142.38;;;36.88;36.44
66479;BME280;53294;47.912;13.526;2023-08-24T11:25:41;96146.44;;;36.87;36.58
66479;BME280;53294;47.912;13.526;2023-08-24T11:28:08;96136.06;;;36.69;37.24
66479;BME280;53294;47.912;13.526;2023-08-24T11:30:35;96128.75;;;36.81;36.67
66479;BME280;53294;47.912;13.526;2023-08-24T11:33:02;96126.56;;;36.66;37.98
66479;BME280;53294;47.912;13.526;2023-08-24T11:35:35;96130.00;;;36.71;37.96
66479;BME280;53294;47.912;13.526;2023-08-24T11:38:01;96127.66;;;37.12;37.84
66479;BME280;53294;47.912;13.526;2023-08-24T11:40:28;96117.31;;;37.61;37.21
66479;BME280;53294;47.912;13.526;2023-08-24T11:42:56;96112.50;;;37.61;36.78
66479;BME280;53294;47.912;13.526;2023-08-24T11:45:23;96107.56;;;37.80;36.69
66479;BME280;53294;47.912;13.526;2023-08-24T11:47:50;96110.72;;;38.12;35.78
66479;BME280;53294;47.912;13.526;2023-08-24T11:50:17;96108.25;;;38.29;36.25
66479;BME280;53294;47.912;13.526;2023-08-24T11:52:44;96110.69;;;38.51;35.01
66479;BME280;53294;47.912;13.526;2023-08-24T11:55:11;96114.75;;;38.80;34.86
66479;BME280;53294;47.912;13.526;2023-08-24T11:57:38;96110.19;;;38.97;34.11
66479;BME280;53294;47.912;13.526;2023-08-24T12:00:05;96101.19;;;38.93;34.02
66479;BME280;53294;47.912;13.526;2023-08-24T12:02:33;96095.31;;;38.76;33.48
66479;BME280;53294;47.912;13.526;2023-08-24T12:05:01;96102.84;;;38.25;34.17
66479;BME280;53294;47.912;13.526;2023-08-24T12:07:32;96101.53;;;37.72;35.56
66479;BME280;53294;47.912;13.526;2023-08-24T12:10:02;96088.25;;;37.58;35.39
66479;BME280;53294;47.912;13.526;2023-08-24T12:12:29;96086.53;;;37.36;36.48
66479;BME280;53294;47.912;13.526;2023-08-24T12:14:56;96083.13;;;37.32;37.25
66479;BME280;53294;47.912;13.526;2023-08-24T12:17:26;96078.56;;;37.11;36.65
66479;BME280;53294;47.912;13.526;2023-08-24T12:19:58;96081.66;;;37.13;38.02
66479;BME280;53294;47.912;13.526;2023-08-24T12:22:26;96077.66;;;37.05;36.71
66479;BME280;53294;47.912;13.526;2023-08-24T12:24:52;96075.16;;;37.07;37.13
66479;BME280;53294;47.912;13.526;2023-08-24T12:27:24;96071.69;;;37.12;37.55
66479;BME280;53294;47.912;13.526;2023-08-24T12:29:52;96066.63;;;37.34;37.01
66479;BME280;53294;47.912;13.526;2023-08-24T12:32:20;96060.09;;;37.38;35.75
66479;BME280;53294;47.912;13.526;2023-08-24T12:34:49;96059.47;;;37.33;36.52
66479;BME280;53294;47.912;13.526;2023-08-24T12:37:18;96045.97;;;37.32;36.16
66479;BME280;53294;47.912;13.526;2023-08-24T12:39:44;96041.72;;;37.36;37.21
66479;BME280;53294;47.912;13.526;2023-08-24T12:42:11;96037.84;;;37.10;37.04
66479;BME280;53294;47.912;13.526;2023-08-24T12:44:38;96036.94;;;37.04;37.11
66479;BME280;53294;47.912;13.526;2023-08-24T12:47:04;96034.88;;;36.80;38.06
66479;BME280;53294;47.912;13.526;2023-08-24T12:49:31;96025.50;;;36.92;36.69
66479;BME280;53294;47.912;13.526;2023-08-24T12:51:58;96024.91;;;36.88;38.40
66479;BME280;53294;47.912;13.526;2023-08-24T12:54:24;96021.09;;;36.67;38.16
66479;BME280;53294;47.912;13.526;2023-08-24T12:56:51;96027.16;;;36.75;37.81
66479;BME280;53294;47.912;13.526;2023-08-24T12:59:18;96017.50;;;36.76;38.24
66479;BME280;53294;47.912;13.526;2023-08-24T13:01:45;96018.09;;;36.80;37.37
66479;BME280;53294;47.912;13.526;2023-08-24T13:04:12;96023.09;;;36.76;38.81
66479;BME280;53294;47.912;13.526;2023-08-24T13:06:38;96004.47;;;36.30;38.00
66479;BME280;53294;47.912;13.526;2023-08-24T13:09:05;95997.50;;;36.07;38.23
66479;BME280;53294;47.912;13.526;2023-08-24T13:11:32;96004.38;;;35.78;39.03